createdAt,value
2019-03-31T00:02:17.996Z,12.20
2019-03-31T00:04:51.369Z,12.15
2019-03-31T00:07:24.343Z,12.09
2019-03-31T00:09:57.274Z,12.06
2019-03-31T00:12:59.469Z,12.02
2019-03-31T00:15:35.348Z,12.04
2019-03-31T00:19:07.220Z,12.08
2019-03-31T00:21:41.583Z,12.11
2019-03-31T00:24:14.567Z,12.07
2019-03-31T00:26:50.528Z,12.02
2019-03-31T00:29:23.099Z,11.97
2019-03-31T00:31:55.605Z,11.91
2019-03-31T00:34:28.224Z,11.84
2019-03-31T00:37:01.525Z,11.79
2019-03-31T00:39:34.580Z,11.74
2019-03-31T00:42:07.090Z,11.70
2019-03-31T00:44:39.587Z,11.66
2019-03-31T00:47:12.124Z,11.61
2019-03-31T00:49:44.649Z,11.56
2019-03-31T00:52:17.795Z,11.50
2019-03-31T00:54:50.280Z,11.45
2019-03-31T00:57:23.244Z,11.40
2019-03-31T00:59:55.748Z,11.34
2019-03-31T01:02:31.571Z,11.32
2019-03-31T01:05:07.441Z,11.28
2019-03-31T01:07:41.047Z,11.26
2019-03-31T01:10:13.863Z,11.25
2019-03-31T01:12:46.852Z,11.27
2019-03-31T01:15:23.323Z,11.31
2019-03-31T01:17:56.223Z,11.34
2019-03-31T01:20:28.767Z,11.30
2019-03-31T01:23:01.805Z,11.25
2019-03-31T01:25:34.544Z,11.22
2019-03-31T01:28:07.011Z,11.23
2019-03-31T01:30:39.506Z,11.28
2019-03-31T01:33:12.099Z,11.30
2019-03-31T01:35:44.596Z,11.33
2019-03-31T01:38:17.772Z,11.30
2019-03-31T01:40:50.322Z,11.26
2019-03-31T01:43:22.832Z,11.24
2019-03-31T01:45:55.598Z,11.24
2019-03-31T01:48:28.336Z,11.26
2019-03-31T01:51:00.891Z,11.28
2019-03-31T01:53:48.488Z,11.29
2019-03-31T01:56:21.123Z,11.32
2019-03-31T01:58:53.805Z,11.34
2019-03-31T02:01:26.279Z,11.35
2019-03-31T02:04:00.475Z,11.26
2019-03-31T02:06:33.560Z,11.17
2019-03-31T02:09:14.884Z,11.07
2019-03-31T02:11:49.459Z,10.95
2019-03-31T02:14:23.231Z,10.83
2019-03-31T02:16:55.699Z,10.72
2019-03-31T02:19:28.265Z,10.61
2019-03-31T02:22:00.877Z,10.50
2019-03-31T02:24:34.498Z,10.44
2019-03-31T02:27:07.296Z,10.38
2019-03-31T02:29:39.787Z,10.32
2019-03-31T02:32:23.255Z,10.31
2019-03-31T02:34:46.521Z,10.33
2019-03-31T02:37:19.411Z,10.32
2019-03-31T02:39:52.555Z,10.26
2019-03-31T02:42:25.239Z,10.20
2019-03-31T02:44:57.879Z,10.15
2019-03-31T02:47:30.894Z,10.13
2019-03-31T02:50:03.678Z,10.14
2019-03-31T02:52:37.122Z,10.19
2019-03-31T02:55:13.828Z,10.26
2019-03-31T02:57:46.401Z,10.26
2019-03-31T03:00:19.014Z,10.20
2019-03-31T03:02:52.637Z,10.15
2019-03-31T03:05:27.955Z,10.14
2019-03-31T03:08:01.825Z,10.14
2019-03-31T03:10:37.806Z,10.15
2019-03-31T03:13:12.139Z,10.10
2019-03-31T03:16:29.045Z,10.04
2019-03-31T03:19:01.506Z,9.98
2019-03-31T03:21:34.242Z,9.86
2019-03-31T03:24:07.227Z,9.82
2019-03-31T03:26:41.270Z,9.82
2019-03-31T03:29:16.581Z,9.90
2019-03-31T03:32:01.610Z,9.91
2019-03-31T03:34:40.665Z,9.86
2019-03-31T03:37:14.894Z,9.77
2019-03-31T03:39:51.076Z,9.68
2019-03-31T03:42:24.537Z,9.63
2019-03-31T03:44:57.168Z,9.64
2019-03-31T03:47:30.235Z,9.61
2019-03-31T03:50:02.797Z,9.54
2019-03-31T03:52:35.452Z,9.52
2019-03-31T03:55:08.298Z,9.51
2019-03-31T03:57:41.782Z,9.49
2019-03-31T04:00:14.435Z,9.47
2019-03-31T04:02:47.271Z,9.46
2019-03-31T04:05:20.617Z,9.50
2019-03-31T04:07:53.141Z,9.58
2019-03-31T04:11:23.586Z,9.62
2019-03-31T04:13:57.461Z,9.59
2019-03-31T04:16:30.860Z,9.53
2019-03-31T04:19:03.990Z,9.52
2019-03-31T04:21:38.354Z,9.49
2019-03-31T04:24:10.941Z,9.43
2019-03-31T04:26:43.702Z,9.35
2019-03-31T04:29:17.236Z,9.27
2019-03-31T04:31:49.818Z,9.18
2019-03-31T04:34:22.935Z,9.08
2019-03-31T04:36:55.544Z,8.99
2019-03-31T04:39:28.608Z,8.89
2019-03-31T04:42:01.253Z,8.79
2019-03-31T04:44:34.975Z,8.68
2019-03-31T04:47:07.741Z,8.63
2019-03-31T04:49:40.534Z,8.65
2019-03-31T04:52:13.011Z,8.69
2019-03-31T04:54:45.831Z,8.69
2019-03-31T04:57:18.263Z,8.67
2019-03-31T04:59:51.489Z,8.69
2019-03-31T05:02:26.988Z,8.70
2019-03-31T05:04:58.486Z,8.73
2019-03-31T05:07:31.036Z,8.70
2019-03-31T05:10:03.677Z,8.67
2019-03-31T05:12:36.200Z,8.65
2019-03-31T05:15:09.507Z,8.63
2019-03-31T05:17:42.932Z,8.60
2019-03-31T05:20:15.567Z,8.57
2019-03-31T05:22:48.032Z,8.57
2019-03-31T05:25:20.743Z,8.56
2019-03-31T05:27:53.205Z,8.55
2019-03-31T05:30:26.310Z,8.54
2019-03-31T05:32:58.766Z,8.57
2019-03-31T05:35:31.314Z,8.64
2019-03-31T05:38:03.806Z,8.71
2019-03-31T05:40:36.457Z,8.74
2019-03-31T05:43:08.922Z,8.75
2019-03-31T05:45:42.139Z,8.73
2019-03-31T05:48:14.751Z,8.67
2019-03-31T05:50:47.254Z,8.62
2019-03-31T05:53:19.795Z,8.59
2019-03-31T05:55:52.332Z,8.57
2019-03-31T05:58:25.012Z,8.55
2019-03-31T06:00:58.240Z,8.55
2019-03-31T06:03:30.921Z,8.62
2019-03-31T06:06:03.533Z,8.69
2019-03-31T06:08:36.372Z,8.75
2019-03-31T06:11:08.946Z,8.77
2019-03-31T06:13:41.891Z,8.81
2019-03-31T06:16:14.992Z,8.85
2019-03-31T06:18:48.275Z,8.90
2019-03-31T06:21:20.779Z,8.95
2019-03-31T06:23:53.349Z,8.98
2019-03-31T06:26:26.268Z,9.02
2019-03-31T06:28:59.659Z,9.06
2019-03-31T06:31:33.027Z,9.13
2019-03-31T06:34:07.888Z,9.20
2019-03-31T06:36:40.404Z,9.31
2019-03-31T06:39:12.917Z,9.44
2019-03-31T06:41:45.435Z,9.56
2019-03-31T06:44:18.231Z,9.70
2019-03-31T06:46:51.787Z,9.88
2019-03-31T06:49:24.403Z,10.05
2019-03-31T06:51:56.932Z,10.23
2019-03-31T06:54:29.478Z,10.40
2019-03-31T06:57:02.042Z,10.57
2019-03-31T06:59:34.750Z,10.74
2019-03-31T07:02:08.008Z,10.90
2019-03-31T07:04:40.995Z,11.03
2019-03-31T07:07:13.622Z,11.14
2019-03-31T07:09:49.005Z,11.25
2019-03-31T07:12:21.754Z,11.37
2019-03-31T07:14:55.065Z,11.47
2019-03-31T07:17:27.582Z,11.57
2019-03-31T07:20:00.813Z,11.67
2019-03-31T07:22:33.347Z,11.78
2019-03-31T07:25:08.928Z,11.87
2019-03-31T07:27:41.569Z,11.97
2019-03-31T07:30:15.207Z,12.08
2019-03-31T07:32:47.851Z,12.20
2019-03-31T07:35:20.990Z,12.32
2019-03-31T07:37:53.597Z,12.41
2019-03-31T07:40:26.336Z,12.49
2019-03-31T07:43:06.082Z,12.58
2019-03-31T07:45:36.774Z,12.69
2019-03-31T07:48:09.302Z,12.81
2019-03-31T07:50:43.054Z,12.91
2019-03-31T07:53:15.537Z,13.01
2019-03-31T07:55:48.508Z,13.12
2019-03-31T07:58:21.039Z,13.21
2019-03-31T08:00:53.576Z,13.29
2019-03-31T08:03:26.416Z,13.36
2019-03-31T08:05:59.667Z,13.44
2019-03-31T08:08:32.155Z,13.53
2019-03-31T08:11:04.965Z,13.64
2019-03-31T08:13:37.691Z,13.75
2019-03-31T08:16:11.347Z,13.84
2019-03-31T08:18:43.946Z,13.97
2019-03-31T08:21:18.335Z,14.08
2019-03-31T08:23:50.838Z,14.18
2019-03-31T08:26:23.346Z,14.27
2019-03-31T08:28:58.582Z,14.35
2019-03-31T08:31:30.202Z,14.46
2019-03-31T08:34:02.741Z,14.55
2019-03-31T08:36:35.882Z,14.62
2019-03-31T08:39:11.405Z,14.70
2019-03-31T08:41:44.716Z,14.79
2019-03-31T08:44:17.562Z,14.89
2019-03-31T08:46:50.219Z,15.00
2019-03-31T08:49:22.789Z,15.06
2019-03-31T08:51:56.026Z,15.14
2019-03-31T08:54:28.564Z,15.21
2019-03-31T08:57:01.683Z,15.31
2019-03-31T08:59:34.587Z,15.40
2019-03-31T09:02:29.039Z,15.50
2019-03-31T09:05:02.442Z,15.59
2019-03-31T09:07:35.546Z,15.72
2019-03-31T09:10:09.650Z,15.81
2019-03-31T09:12:42.436Z,15.93
2019-03-31T09:15:15.336Z,16.04
2019-03-31T09:17:47.886Z,16.13
2019-03-31T09:20:21.950Z,16.23
2019-03-31T09:22:55.568Z,16.32
2019-03-31T09:25:28.129Z,16.40
2019-03-31T09:28:01.299Z,16.49
2019-03-31T09:30:33.885Z,16.60
2019-03-31T09:33:06.666Z,16.72
2019-03-31T09:35:47.349Z,16.81
2019-03-31T09:38:20.579Z,16.91
2019-03-31T09:40:53.108Z,17.02
2019-03-31T09:43:25.680Z,17.14
2019-03-31T09:45:59.523Z,17.25
2019-03-31T09:48:32.390Z,17.35
2019-03-31T09:51:05.078Z,17.47
2019-03-31T09:53:38.287Z,17.57
2019-03-31T09:56:11.004Z,17.70
2019-03-31T09:58:43.534Z,17.82
2019-03-31T10:01:16.113Z,17.93
2019-03-31T10:03:49.768Z,18.03
2019-03-31T10:06:30.184Z,18.14
2019-03-31T10:08:58.067Z,18.24
2019-03-31T10:11:30.558Z,18.32
2019-03-31T10:14:03.242Z,18.41
2019-03-31T10:16:35.816Z,18.51
2019-03-31T10:19:08.427Z,18.58
2019-03-31T10:21:40.948Z,18.67
2019-03-31T10:24:14.245Z,18.78
2019-03-31T10:26:46.904Z,18.87
2019-03-31T10:29:19.535Z,18.94
2019-03-31T10:31:52.145Z,19.02
2019-03-31T10:34:24.638Z,19.12
2019-03-31T10:36:58.140Z,19.21
2019-03-31T10:39:31.403Z,19.28
2019-03-31T10:42:03.992Z,19.35
2019-03-31T10:44:36.570Z,19.45
2019-03-31T10:47:09.258Z,19.54
2019-03-31T10:49:41.923Z,19.62
2019-03-31T10:52:14.501Z,19.73
2019-03-31T10:54:48.002Z,19.80
2019-03-31T10:57:20.540Z,19.87
2019-03-31T10:59:53.456Z,19.99
2019-03-31T11:02:28.261Z,20.10
2019-03-31T11:05:01.055Z,20.19
2019-03-31T11:07:33.749Z,20.27
2019-03-31T11:10:07.369Z,20.35
2019-03-31T11:12:39.924Z,20.41
2019-03-31T11:15:12.521Z,20.47
2019-03-31T11:17:45.062Z,20.53
2019-03-31T11:20:17.721Z,20.60
2019-03-31T11:23:00.867Z,20.68
2019-03-31T11:25:34.591Z,20.75
2019-03-31T11:28:07.196Z,20.81
2019-03-31T11:30:41.415Z,20.87
2019-03-31T11:33:14.050Z,20.93
2019-03-31T11:35:47.162Z,20.98
2019-03-31T11:38:20.325Z,21.02
2019-03-31T11:40:53.881Z,21.04
2019-03-31T11:43:26.497Z,21.08
2019-03-31T11:45:59.209Z,21.11
2019-03-31T11:48:31.689Z,21.13
2019-03-31T11:51:04.257Z,21.16
2019-03-31T11:53:36.838Z,21.17
2019-03-31T11:56:10.084Z,21.19
2019-03-31T11:58:42.765Z,21.23
2019-03-31T12:01:15.621Z,21.28
2019-03-31T12:03:48.182Z,21.30
2019-03-31T12:06:20.848Z,21.34
2019-03-31T12:08:53.626Z,21.39
2019-03-31T12:11:26.138Z,21.44
2019-03-31T12:13:58.988Z,21.49
2019-03-31T12:16:31.553Z,21.58
2019-03-31T12:19:04.471Z,21.67
2019-03-31T12:21:37.038Z,21.73
2019-03-31T12:24:11.363Z,21.77
2019-03-31T12:26:43.970Z,21.81
2019-03-31T12:29:17.059Z,21.86
2019-03-31T12:31:50.350Z,21.90
2019-03-31T12:34:23.063Z,21.94
2019-03-31T12:36:55.593Z,22.02
2019-03-31T12:39:28.337Z,22.09
2019-03-31T12:42:01.109Z,22.15
2019-03-31T12:44:34.607Z,22.21
2019-03-31T12:47:07.350Z,22.26
2019-03-31T12:49:39.897Z,22.35
2019-03-31T12:52:12.491Z,22.44
2019-03-31T12:54:45.046Z,22.53
2019-03-31T12:57:17.531Z,22.61
2019-03-31T12:59:50.782Z,22.67
2019-03-31T13:02:23.259Z,22.73
2019-03-31T13:04:55.984Z,22.78
2019-03-31T13:07:28.806Z,22.83
2019-03-31T13:10:01.414Z,22.85
2019-03-31T13:12:35.133Z,22.87
2019-03-31T13:15:08.916Z,22.88
2019-03-31T13:17:41.431Z,22.88
2019-03-31T13:20:14.474Z,22.87
2019-03-31T13:22:47.012Z,22.88
2019-03-31T13:25:19.558Z,22.90
2019-03-31T13:27:52.051Z,22.94
2019-03-31T13:30:25.588Z,23.01
2019-03-31T13:32:58.131Z,23.07
2019-03-31T13:35:30.713Z,23.12
2019-03-31T13:38:10.813Z,23.19
2019-03-31T13:40:37.592Z,23.24
2019-03-31T13:43:10.139Z,23.31
2019-03-31T13:45:43.476Z,23.38
2019-03-31T13:48:16.019Z,23.44
2019-03-31T13:50:48.567Z,23.46
2019-03-31T13:53:21.024Z,23.47
2019-03-31T13:55:53.613Z,23.45
2019-03-31T13:58:28.502Z,23.40
2019-03-31T14:01:01.347Z,23.35
2019-03-31T14:03:33.850Z,23.32
2019-03-31T14:06:06.828Z,23.30
2019-03-31T14:08:39.383Z,23.25
2019-03-31T14:11:12.421Z,23.20
2019-03-31T14:13:44.970Z,23.15
2019-03-31T14:16:18.127Z,23.11
2019-03-31T14:18:50.827Z,23.07
2019-03-31T14:21:23.435Z,23.05
2019-03-31T14:23:55.953Z,23.03
2019-03-31T14:26:28.515Z,23.02
2019-03-31T14:29:01.376Z,23.02
2019-03-31T14:31:33.970Z,23.02
2019-03-31T14:34:07.052Z,23.05
2019-03-31T14:36:39.599Z,23.05
2019-03-31T14:39:12.337Z,23.07
2019-03-31T14:41:46.193Z,23.08
2019-03-31T14:44:18.733Z,23.09
2019-03-31T14:46:51.221Z,23.09
2019-03-31T14:49:25.956Z,23.09
2019-03-31T14:52:01.296Z,23.11
2019-03-31T14:54:33.067Z,23.13
2019-03-31T14:57:05.648Z,23.17
2019-03-31T14:59:38.326Z,23.20
2019-03-31T15:02:10.880Z,23.21
2019-03-31T15:04:43.987Z,23.22
2019-03-31T15:07:16.831Z,23.23
2019-03-31T15:09:49.907Z,23.27
2019-03-31T15:12:22.439Z,23.27
2019-03-31T15:14:55.187Z,23.24
2019-03-31T15:17:28.294Z,23.23
2019-03-31T15:20:00.896Z,23.24
2019-03-31T15:22:33.427Z,23.22
2019-03-31T15:25:06.456Z,23.22
2019-03-31T15:27:39.123Z,23.19
2019-03-31T15:30:12.111Z,23.18
2019-03-31T15:32:45.055Z,23.16
2019-03-31T15:35:17.646Z,23.14
2019-03-31T15:37:50.231Z,23.13
2019-03-31T15:40:23.238Z,23.10
2019-03-31T15:42:55.778Z,23.09
2019-03-31T15:45:28.725Z,23.06
2019-03-31T15:48:01.316Z,23.05
2019-03-31T15:50:34.036Z,23.03
2019-03-31T15:53:06.640Z,23.01
2019-03-31T15:55:39.618Z,22.99
2019-03-31T15:58:12.311Z,22.98
2019-03-31T16:00:45.116Z,22.96
2019-03-31T16:03:17.879Z,22.93
2019-03-31T16:05:50.716Z,22.90
2019-03-31T16:08:22.459Z,22.87
2019-03-31T16:10:54.652Z,22.86
2019-03-31T16:13:26.490Z,22.84
2019-03-31T16:15:58.361Z,22.82
2019-03-31T16:18:30.065Z,22.80
2019-03-31T16:21:01.911Z,22.78
2019-03-31T16:23:33.833Z,22.76
2019-03-31T16:26:06.465Z,22.74
2019-03-31T16:28:38.197Z,22.72
2019-03-31T16:31:09.928Z,22.69
2019-03-31T16:33:41.703Z,22.67
2019-03-31T16:36:13.645Z,22.64
2019-03-31T16:38:45.741Z,22.60
2019-03-31T16:41:17.640Z,22.57
2019-03-31T16:43:49.863Z,22.56
2019-03-31T16:46:21.588Z,22.50
2019-03-31T16:48:53.436Z,22.47
2019-03-31T16:51:25.344Z,22.45
2019-03-31T16:53:57.083Z,22.42
2019-03-31T16:56:28.814Z,22.39
2019-03-31T16:59:03.666Z,22.35
2019-03-31T17:01:35.454Z,22.32
2019-03-31T17:06:39.687Z,22.31
2019-03-31T17:09:11.544Z,22.22
2019-03-31T17:11:43.583Z,22.16
2019-03-31T17:14:15.942Z,22.11
2019-03-31T17:16:47.848Z,22.05
2019-03-31T17:19:19.655Z,22.00
2019-03-31T17:21:51.454Z,21.94
2019-03-31T17:24:23.869Z,21.89
2019-03-31T17:26:55.613Z,21.84
2019-03-31T17:29:28.441Z,21.79
2019-03-31T17:32:00.166Z,21.74
2019-03-31T17:34:31.872Z,21.70
2019-03-31T17:37:03.691Z,21.63
2019-03-31T17:39:35.433Z,21.59
2019-03-31T17:42:07.460Z,21.52
2019-03-31T17:44:39.998Z,21.48
2019-03-31T17:47:11.895Z,21.42
2019-03-31T17:49:43.688Z,21.36
2019-03-31T17:52:15.452Z,21.29
2019-03-31T17:54:47.354Z,21.23
2019-03-31T17:57:19.171Z,21.17
2019-03-31T17:59:51.560Z,21.11
2019-03-31T18:02:23.674Z,21.07
2019-03-31T18:04:55.717Z,20.99
2019-03-31T18:07:27.828Z,20.94
2019-03-31T18:09:59.585Z,20.88
2019-03-31T18:12:31.268Z,20.81
2019-03-31T18:15:04.062Z,20.75
2019-03-31T18:17:35.819Z,20.69
2019-03-31T18:20:09.453Z,20.63
2019-03-31T18:22:41.761Z,20.57
2019-03-31T18:25:13.771Z,20.50
2019-03-31T18:27:46.140Z,20.40
2019-03-31T18:30:18.552Z,20.29
2019-03-31T18:32:50.595Z,20.20
2019-03-31T18:35:22.508Z,20.10
2019-03-31T18:37:54.237Z,20.00
2019-03-31T18:40:34.954Z,19.91
2019-03-31T18:42:59.328Z,19.82
2019-03-31T18:45:31.083Z,19.75
2019-03-31T18:48:03.486Z,19.65
2019-03-31T18:50:35.403Z,19.56
2019-03-31T18:53:11.293Z,19.44
2019-03-31T18:55:50.283Z,19.30
2019-03-31T18:58:40.884Z,19.20
2019-03-31T19:01:46.413Z,19.11
2019-03-31T19:04:36.958Z,19.04
2019-03-31T19:07:27.201Z,19.01
2019-03-31T19:10:07.678Z,18.96
2019-03-31T19:12:56.660Z,18.87
2019-03-31T19:15:45.914Z,18.82
2019-03-31T19:18:35.645Z,18.76
2019-03-31T19:21:22.747Z,18.74
2019-03-31T19:24:06.492Z,18.69
2019-03-31T19:26:54.828Z,18.61
2019-03-31T19:29:39.051Z,18.55
2019-03-31T19:32:18.850Z,18.48
2019-03-31T19:35:09.514Z,18.40
2019-03-31T19:37:58.761Z,18.36
2019-03-31T19:40:43.126Z,18.34
2019-03-31T19:43:30.484Z,18.29
2019-03-31T19:46:19.891Z,18.24
2019-03-31T19:49:26.112Z,18.17
2019-03-31T19:52:16.833Z,18.12
2019-03-31T19:55:00.381Z,18.03
2019-03-31T19:57:49.519Z,17.98
2019-03-31T20:00:46.924Z,17.92
2019-03-31T20:03:44.000Z,17.88
2019-03-31T20:06:26.525Z,17.84
2019-03-31T20:09:19.881Z,17.76
2019-03-31T20:12:10.519Z,17.71
2019-03-31T20:14:50.218Z,17.65
2019-03-31T20:17:40.795Z,17.56
2019-03-31T20:20:37.485Z,17.50
2019-03-31T20:23:34.071Z,17.42
2019-03-31T20:26:21.768Z,17.36
2019-03-31T20:29:18.737Z,17.30
2019-03-31T20:31:58.691Z,17.25
2019-03-31T20:34:38.892Z,17.21
2019-03-31T20:37:24.665Z,17.18
2019-03-31T20:40:13.895Z,17.13
2019-03-31T20:43:08.215Z,17.10
2019-03-31T20:45:39.940Z,17.09
2019-03-31T20:48:12.135Z,17.09
2019-03-31T20:50:44.095Z,17.10
2019-03-31T20:53:16.067Z,17.09
2019-03-31T20:55:47.992Z,17.07
2019-03-31T20:58:19.686Z,17.06
2019-03-31T21:00:51.447Z,17.05
2019-03-31T21:03:23.894Z,17.04
2019-03-31T21:05:56.697Z,17.01
2019-03-31T21:08:28.939Z,17.00
2019-03-31T21:11:00.901Z,16.97
2019-03-31T21:13:32.578Z,16.95
2019-03-31T21:16:04.331Z,16.93
2019-03-31T21:18:36.723Z,16.91
2019-03-31T21:21:08.525Z,16.89
2019-03-31T21:23:40.329Z,16.88
2019-03-31T21:26:12.010Z,16.85
2019-03-31T21:28:43.975Z,16.82
2019-03-31T21:31:15.919Z,16.81
2019-03-31T21:33:48.359Z,16.78
2019-03-31T21:36:20.113Z,16.76
2019-03-31T21:38:51.896Z,16.74
2019-03-31T21:41:23.759Z,16.73
2019-03-31T21:43:55.673Z,16.69
2019-03-31T21:46:27.775Z,16.68
2019-03-31T21:49:00.348Z,16.65
2019-03-31T21:51:32.069Z,16.62
2019-03-31T21:54:03.859Z,16.60
2019-03-31T21:56:35.499Z,16.56
2019-03-31T21:59:07.182Z,16.52
2019-03-31T22:01:38.976Z,16.49
2019-03-31T22:04:12.943Z,16.45
2019-03-31T22:06:45.410Z,16.40
2019-03-31T22:09:17.197Z,16.36
2019-03-31T22:11:48.938Z,16.33
2019-03-31T22:14:20.723Z,16.30
2019-03-31T22:16:52.407Z,16.25
2019-03-31T22:19:26.316Z,16.20
2019-03-31T22:21:58.005Z,16.17
2019-03-31T22:24:30.166Z,16.13
2019-03-31T22:27:01.843Z,16.08
2019-03-31T22:29:33.556Z,16.04
2019-03-31T22:32:05.239Z,16.00
2019-03-31T22:34:37.527Z,15.95
2019-03-31T22:37:09.323Z,15.91
2019-03-31T22:39:41.149Z,15.87
2019-03-31T22:42:12.807Z,15.82
2019-03-31T22:44:44.507Z,15.78
2019-03-31T22:47:16.155Z,15.75
2019-03-31T22:49:48.477Z,15.69
2019-03-31T22:52:20.286Z,15.66
2019-03-31T22:54:51.968Z,15.63
2019-03-31T22:57:23.651Z,15.60
2019-03-31T22:59:55.366Z,15.57
2019-03-31T23:02:27.922Z,15.53
2019-03-31T23:05:00.402Z,15.51
2019-03-31T23:07:32.165Z,15.47
2019-03-31T23:10:03.918Z,15.44
2019-03-31T23:12:35.586Z,15.41
2019-03-31T23:15:07.288Z,15.38
2019-03-31T23:17:38.904Z,15.37
2019-03-31T23:20:11.346Z,15.35
2019-03-31T23:22:42.982Z,15.32
2019-03-31T23:25:14.980Z,15.30
2019-03-31T23:27:46.590Z,15.25
2019-03-31T23:30:18.722Z,15.25
2019-03-31T23:32:50.352Z,15.21
2019-03-31T23:35:22.584Z,15.16
2019-03-31T23:37:54.230Z,15.11
2019-03-31T23:40:26.281Z,15.04
2019-03-31T23:42:57.890Z,14.97
2019-03-31T23:45:32.275Z,14.92
2019-03-31T23:48:04.059Z,14.89
2019-03-31T23:50:35.735Z,14.84
2019-03-31T23:53:07.824Z,14.81
2019-03-31T23:55:39.596Z,14.75
2019-03-31T23:58:11.280Z,14.70
